Airport View

Enter AWOS ICAO identifier for current METAR.

ex. KFNL

KMWK 171615Z AUTO 14003KT 10SM CLR 15/M02 A3038 RMK AO2 T01501019

20 Oct 2020 00:44

Frequency: 121.125

Phone: 336-789-2299

Other Area AWOS: KHLX - KINT - KMTV - KUKF

TAF KINT 192333Z 2000/2024 00000KT P6SM SCT030 BKN250 FM200800 00000KT 4SM BR SCT003 TEMPO 2010/2014 2SM BR SCT002 FM201600 VRB03KT P6SM SCT250